Time;durP1;ratioP1;P1;durP2;ratioP2;P2;SDS_P1;SDS_P2;PMS_P1;PMS_P2;Temp;Humidity;BMP_temperature;BMP_pressure;BME280_temperature;BME280_humidity;BME280_pressure;Samples;Min_cycle;Max_cycle;Signal;HPM_P1;HPM_P2
2022/11/08 00:03:11;;;;;;;10.27;6.10;;;;;;;10.42;100.00;99037.41;4992779;28;20686;-80
2022/11/08 00:13:57;;;;;;;12.63;6.20;;;;;;;10.00;100.00;99034.75;4993055;28;20274;-80
2022/11/08 00:16:28;;;;;;;13.17;5.73;;;;;;;10.11;100.00;99020.84;5062067;28;20254;-80
2022/11/08 00:18:57;;;;;;;13.40;6.10;;;;;;;10.15;100.00;99021.53;5071497;28;20249;-80
2022/11/08 00:21:26;;;;;;;12.07;5.97;;;;;;;10.10;100.00;99016.50;5073205;28;20307;-80
2022/11/08 00:23:58;;;;;;;15.17;6.13;;;;;;;10.06;100.00;99012.38;5072293;28;20188;-79
2022/11/08 00:26:27;;;;;;;14.20;6.23;;;;;;;10.10;100.00;99015.66;5073338;28;20184;-80
2022/11/08 00:28:56;;;;;;;10.93;5.73;;;;;;;9.97;100.00;99010.31;5076546;28;20655;-80
2022/11/08 00:31:26;;;;;;;13.80;6.00;;;;;;;10.05;100.00;99015.97;5073088;28;20192;-80
2022/11/08 00:33:55;;;;;;;12.63;6.03;;;;;;;10.03;100.00;99020.47;5039144;28;20242;-80
2022/11/08 00:36:23;;;;;;;10.23;6.30;;;;;;;10.00;100.00;99015.41;5070857;28;20188;-80
2022/11/08 00:38:51;;;;;;;12.27;6.03;;;;;;;10.03;100.00;99012.53;5073247;28;20196;-80
2022/11/08 00:41:20;;;;;;;16.00;6.20;;;;;;;9.92;100.00;99018.53;5075741;28;20207;-80
2022/11/08 00:43:48;;;;;;;11.90;6.10;;;;;;;9.97;100.00;99013.81;5077564;28;20241;-80
2022/11/08 00:46:16;;;;;;;14.23;6.20;;;;;;;9.96;100.00;99009.47;5051003;28;20220;-80
2022/11/08 00:48:46;;;;;;;13.50;6.07;;;;;;;9.94;100.00;99011.38;5045656;28;20201;-80
2022/11/08 00:51:17;;;;;;;13.07;5.83;;;;;;;9.97;100.00;99011.16;5050310;28;20227;-79
2022/11/08 00:53:45;;;;;;;13.53;5.73;;;;;;;9.90;100.00;99019.56;5046579;28;20200;-80
2022/11/08 00:56:18;;;;;;;15.43;7.07;;;;;;;10.10;100.00;99016.50;5048955;28;20209;-80
2022/11/08 00:58:46;;;;;;;13.87;6.07;;;;;;;10.05;100.00;99015.97;5051231;28;20262;-79
2022/11/08 01:01:18;;;;;;;11.13;6.20;;;;;;;10.15;100.00;99010.94;5046316;28;20185;-80
2022/11/08 01:03:49;;;;;;;12.47;5.63;;;;;;;10.08;100.00;99012.25;5054526;28;20220;-80
2022/11/08 01:06:20;;;;;;;10.37;5.70;;;;;;;9.86;100.00;99013.63;5073854;28;20631;-79
2022/11/08 01:08:49;;;;;;;12.90;6.10;;;;;;;9.92;100.00;99007.09;5072561;28;20200;-80
2022/11/08 01:11:20;;;;;;;10.07;5.07;;;;;;;10.11;100.00;99010.25;5080772;28;20192;-79
2022/11/08 01:13:49;;;;;;;11.53;6.13;;;;;;;10.07;100.00;99011.41;5076905;28;20249;-80
2022/11/08 01:16:20;;;;;;;11.83;5.63;;;;;;;10.07;100.00;99014.06;5076618;28;20246;-80
2022/11/08 01:18:51;;;;;;;13.67;5.80;;;;;;;9.98;100.00;99017.28;5009895;28;20623;-80
2022/11/08 01:21:23;;;;;;;11.90;5.27;;;;;;;10.03;100.00;99020.47;5072827;28;20204;-81
2022/11/08 01:23:53;;;;;;;15.87;5.30;;;;;;;9.89;100.00;99016.09;5081820;27;20265;-79
2022/11/08 01:26:23;;;;;;;12.97;5.57;;;;;;;9.91;100.00;99021.28;5081236;28;20231;-80
2022/11/08 01:28:52;;;;;;;10.07;5.23;;;;;;;9.93;100.00;99014.09;5077704;28;20211;-80
2022/11/08 01:31:24;;;;;;;9.00;5.00;;;;;;;9.95;100.00;99017.50;5043734;28;20196;-80
2022/11/08 01:33:55;;;;;;;11.40;5.17;;;;;;;9.93;100.00;99009.63;5083243;27;20200;-80
2022/11/08 01:36:26;;;;;;;11.17;5.30;;;;;;;9.93;100.00;98996.41;5076905;28;20203;-80
2022/11/08 01:38:55;;;;;;;11.47;5.10;;;;;;;9.84;100.00;98998.78;5045455;28;20204;-80
2022/11/08 01:41:25;;;;;;;10.73;4.73;;;;;;;9.88;100.00;99002.97;5079348;28;20455;-80
2022/11/08 01:43:55;;;;;;;13.17;5.17;;;;;;;9.84;100.00;98994.34;5079168;28;20212;-80
2022/11/08 01:46:45;;;;;;;10.53;5.40;;;;;;;9.78;100.00;98997.41;5074963;28;20196;-81
2022/11/08 01:49:46;;;;;;;9.73;5.07;;;;;;;9.84;100.00;98990.84;5077348;28;20227;-80
2022/11/08 01:52:25;;;;;;;10.90;4.60;;;;;;;9.82;100.00;98987.47;5075998;28;20231;-80
2022/11/08 01:55:08;;;;;;;13.17;5.23;;;;;;;9.80;100.00;98997.31;5075378;28;20191;-79
2022/11/08 01:57:42;;;;;;;9.97;4.63;;;;;;;9.73;100.00;98991.53;5053976;28;20193;-80
2022/11/08 02:00:12;;;;;;;11.63;5.17;;;;;;;9.76;100.00;98991.38;5076229;28;20198;-80
2022/11/08 02:02:43;;;;;;;8.63;4.93;;;;;;;9.73;100.00;98991.53;5079322;28;20254;-80
2022/11/08 02:05:26;;;;;;;10.70;4.57;;;;;;;9.79;100.00;98985.88;5075919;28;20224;-80
2022/11/08 02:07:59;;;;;;;10.57;4.93;;;;;;;9.74;100.00;98975.56;5077764;28;20196;-80
2022/11/08 02:10:33;;;;;;;11.63;4.97;;;;;;;9.70;100.00;98979.38;5075396;28;20188;-80
2022/11/08 02:13:03;;;;;;;9.97;5.07;;;;;;;9.65;100.00;98972.66;5075643;28;20192;-80
2022/11/08 02:15:34;;;;;;;9.27;5.13;;;;;;;9.67;100.00;98974.28;5076891;28;20204;-80
2022/11/08 02:18:06;;;;;;;11.50;4.70;;;;;;;9.71;100.00;98967.84;5072191;28;20693;-80
2022/11/08 02:20:36;;;;;;;12.27;5.23;;;;;;;9.85;100.00;98974.06;5070754;28;20204;-79
2022/11/08 02:23:16;;;;;;;11.97;5.70;;;;;;;9.73;100.00;98980.97;5075430;28;20224;-79
2022/11/08 02:25:46;;;;;;;14.00;5.90;;;;;;;9.63;100.00;98969.25;5072633;28;20230;-80
2022/11/08 02:28:14;;;;;;;12.80;5.67;;;;;;;9.56;100.00;98968.81;5042082;28;20199;-79
2022/11/08 02:30:43;;;;;;;12.03;5.37;;;;;;;9.67;100.00;98969.00;5073376;28;20207;-80
2022/11/08 02:33:17;;;;;;;10.37;5.27;;;;;;;9.73;100.00;98970.38;5073880;28;20196;-80
2022/11/08 02:35:49;;;;;;;12.07;5.80;;;;;;;9.57;100.00;98965.22;5055495;28;20204;-80
2022/11/08 02:38:18;;;;;;;11.47;5.70;;;;;;;9.52;100.00;98958.53;5078111;28;20200;-80
2022/11/08 02:40:51;;;;;;;12.83;6.10;;;;;;;9.57;100.00;98959.09;5076931;28;20227;-80
2022/11/08 02:43:20;;;;;;;14.77;5.57;;;;;;;9.54;100.00;98968.06;5075048;28;20220;-79
2022/11/08 02:45:49;;;;;;;11.13;5.83;;;;;;;9.64;100.00;98963.88;5075194;28;20192;-80
2022/11/08 02:48:19;;;;;;;11.53;6.43;;;;;;;9.61;100.00;98955.31;5073664;28;20195;-80
2022/11/08 02:50:48;;;;;;;12.20;6.10;;;;;;;9.40;100.00;98954.88;5073702;28;20227;-80
2022/11/08 02:53:18;;;;;;;12.30;5.97;;;;;;;9.08;100.00;98952.41;5073041;28;20238;-81
2022/11/08 02:55:47;;;;;;;11.73;6.20;;;;;;;9.06;100.00;98949.00;5077882;28;20196;-80
2022/11/08 02:58:17;;;;;;;10.87;5.40;;;;;;;9.06;100.00;98946.34;5074633;28;20193;-80
2022/11/08 03:00:45;;;;;;;11.90;5.73;;;;;;;9.27;100.00;98940.72;5074495;28;20273;-80
2022/11/08 03:03:14;;;;;;;11.33;5.57;;;;;;;9.22;100.00;98941.00;5073481;28;20701;-79
2022/11/08 03:05:43;;;;;;;13.03;6.03;;;;;;;9.25;100.00;98939.94;5077376;28;20239;-80
2022/11/08 03:08:12;;;;;;;9.47;5.50;;;;;;;9.22;100.00;98937.50;5053125;28;20196;-80
2022/11/08 03:10:40;;;;;;;11.23;5.27;;;;;;;8.86;100.00;98937.00;5075249;28;20672;-79
2022/11/08 03:13:17;;;;;;;10.00;5.30;;;;;;;8.81;100.00;98943.53;5075688;28;20204;-80
2022/11/08 03:15:45;;;;;;;12.97;5.50;;;;;;;8.71;100.00;98934.47;5079307;28;20203;-79
2022/11/08 03:18:13;;;;;;;10.33;6.10;;;;;;;8.65;100.00;98934.81;5074591;28;20203;-82
2022/11/08 03:20:44;;;;;;;11.80;5.17;;;;;;;8.70;100.00;98924.84;5072051;28;20231;-80
2022/11/08 03:23:13;;;;;;;11.83;5.90;;;;;;;8.77;100.00;98934.91;5074531;28;20212;-79
2022/11/08 03:25:43;;;;;;;11.97;6.30;;;;;;;8.82;100.00;98930.22;5074523;28;20193;-80
2022/11/08 03:28:11;;;;;;;8.73;5.93;;;;;;;8.84;100.00;98927.50;5074514;28;20201;-80
2022/11/08 03:30:41;;;;;;;12.33;6.50;;;;;;;8.92;100.00;98927.03;5070434;28;20230;-81
2022/11/08 03:33:10;;;;;;;9.27;5.40;;;;;;;8.96;100.00;98925.88;5072151;28;20188;-80
2022/11/08 03:35:38;;;;;;;11.17;5.70;;;;;;;8.66;100.00;98928.59;5074132;28;20246;-80
2022/11/08 03:38:07;;;;;;;10.27;6.13;;;;;;;8.73;100.00;98922.00;5072449;28;20188;-80
2022/11/08 03:40:36;;;;;;;11.63;5.50;;;;;;;8.93;100.00;98918.16;5076038;28;20258;-80
2022/11/08 03:43:04;;;;;;;12.63;6.00;;;;;;;8.91;100.00;98918.25;5076656;28;20189;-81
2022/11/08 03:45:33;;;;;;;8.50;6.03;;;;;;;8.91;100.00;98920.91;5075359;28;20189;-80
2022/11/08 03:48:03;;;;;;;14.00;5.70;;;;;;;8.96;100.00;98910.88;5069490;28;20242;-80
2022/11/08 03:50:32;;;;;;;11.60;6.13;;;;;;;8.92;100.00;98912.03;5039597;28;20200;-80
2022/11/08 03:53:00;;;;;;;11.70;6.13;;;;;;;8.89;100.00;98910.44;5077028;28;20224;-80
2022/11/08 03:55:30;;;;;;;11.37;5.90;;;;;;;9.01;100.00;98913.25;5073990;28;20196;-80
2022/11/08 03:57:59;;;;;;;13.07;5.97;;;;;;;8.80;100.00;98904.88;5073329;28;20203;-80
2022/11/08 04:00:29;;;;;;;17.03;6.33;;;;;;;8.77;100.00;98902.38;5070293;28;20223;-80
2022/11/08 04:03:03;;;;;;;12.93;5.60;;;;;;;8.89;100.00;98896.38;5070431;28;20192;-80
2022/11/08 04:05:32;;;;;;;14.70;6.20;;;;;;;8.84;100.00;98893.16;5071575;28;20195;-80
2022/11/08 04:08:05;;;;;;;10.67;5.73;;;;;;;8.86;100.00;98892.13;5067885;28;20246;-80
2022/11/08 04:10:36;;;;;;;8.13;5.63;;;;;;;8.98;100.00;98890.53;5068670;28;20200;-80
2022/11/08 04:15:54;;;;;;;10.40;5.93;;;;;;;8.86;100.00;98885.97;5070596;28;20227;-81
2022/11/08 04:21:20;;;;;;;13.00;5.83;;;;;;;8.98;100.00;98882.59;5073676;28;20200;-79
2022/11/08 04:23:51;;;;;;;13.87;5.57;;;;;;;8.94;100.00;98880.22;5073399;28;20247;-78
2022/11/08 04:26:21;;;;;;;13.50;5.90;;;;;;;8.98;100.00;98876.47;5073560;28;20195;-81
2022/11/08 04:28:50;;;;;;;9.83;5.40;;;;;;;8.96;100.00;98880.97;5074360;28;20251;-79
2022/11/08 04:31:21;;;;;;;11.93;5.37;;;;;;;9.03;100.00;98875.22;5070929;28;20269;-79
2022/11/08 04:33:51;;;;;;;13.37;5.80;;;;;;;9.04;100.00;98874.28;5068134;28;20238;-81
2022/11/08 04:36:20;;;;;;;12.20;5.60;;;;;;;9.04;100.00;98873.44;5071216;28;20258;-82
2022/11/08 04:38:49;;;;;;;9.57;4.97;;;;;;;9.02;100.00;98864.75;5064859;28;20230;-81
2022/11/08 04:41:20;;;;;;;10.13;5.27;;;;;;;9.07;100.00;98862.66;5048376;28;20200;-81
2022/11/08 04:43:50;;;;;;;10.83;5.23;;;;;;;9.10;100.00;98859.84;5046039;28;20251;-81
2022/11/08 04:46:21;;;;;;;9.60;5.37;;;;;;;9.24;100.00;98861.63;5046717;28;20185;-81
2022/11/08 04:48:53;;;;;;;8.07;4.87;;;;;;;9.23;100.00;98862.56;4991507;28;20198;-80
2022/11/08 04:51:25;;;;;;;11.00;5.20;;;;;;;9.29;100.00;98860.41;4983913;28;20203;-81
2022/11/08 04:53:56;;;;;;;13.13;5.70;;;;;;;9.33;100.00;98848.66;4967453;28;20200;-81
2022/11/08 04:56:26;;;;;;;12.63;5.30;;;;;;;9.34;100.00;98846.88;4971939;28;20303;-81
2022/11/08 04:58:56;;;;;;;10.23;6.20;;;;;;;9.28;100.00;98850.78;4984695;28;20264;-81
2022/11/08 05:01:26;;;;;;;11.37;5.90;;;;;;;9.24;100.00;98849.25;5024182;28;20229;-81
2022/11/08 05:03:57;;;;;;;13.27;5.67;;;;;;;9.11;100.00;98843.91;5027797;28;20244;-81
2022/11/08 05:06:27;;;;;;;11.10;6.17;;;;;;;9.05;100.00;98849.56;5039545;28;20207;-80
2022/11/08 05:08:57;;;;;;;14.53;6.23;;;;;;;9.03;100.00;98840.03;5071195;28;20200;-81
2022/11/08 05:11:27;;;;;;;9.83;5.70;;;;;;;9.07;100.00;98845.06;5070045;28;20254;-81
2022/11/08 05:13:56;;;;;;;17.37;6.13;;;;;;;9.12;100.00;98839.47;5072976;28;20208;-81
2022/11/08 05:16:26;;;;;;;11.60;6.60;;;;;;;9.17;100.00;98843.53;5074844;28;20192;-79
2022/11/08 05:19:00;;;;;;;12.97;6.13;;;;;;;9.12;100.00;98834.19;5071403;28;20192;-79
2022/11/08 05:24:16;;;;;;;11.13;6.27;;;;;;;8.96;100.00;98831.66;5072545;28;20212;-78
2022/11/08 05:26:47;;;;;;;12.17;6.53;;;;;;;9.02;100.00;98827.78;5072317;28;20189;-79
2022/11/08 05:29:17;;;;;;;11.20;6.67;;;;;;;8.97;100.00;98830.69;5070160;28;20200;-78
2022/11/08 05:31:45;;;;;;;17.77;7.20;;;;;;;8.93;100.00;98829.22;5065107;28;20196;-78
2022/11/08 05:34:15;;;;;;;10.47;6.73;;;;;;;9.02;100.00;98825.13;5072634;28;20199;-78
2022/11/08 05:36:43;;;;;;;9.50;6.53;;;;;;;8.96;100.00;98820.22;5070211;28;20246;-78
2022/11/08 05:39:11;;;;;;;11.13;6.30;;;;;;;8.94;100.00;98819.50;5071481;28;20277;-79
2022/11/08 05:41:40;;;;;;;12.17;6.77;;;;;;;8.78;100.00;98830.16;5072558;28;20189;-79
2022/11/08 05:44:09;;;;;;;14.23;7.07;;;;;;;8.85;100.00;98829.69;5073272;28;20204;-78
2022/11/08 05:46:38;;;;;;;10.73;6.70;;;;;;;8.93;100.00;98828.34;5070552;28;20385;-79
2022/11/08 05:49:06;;;;;;;9.30;5.93;;;;;;;8.86;100.00;98817.31;5073644;28;20250;-78
2022/11/08 05:51:38;;;;;;;10.07;6.40;;;;;;;8.86;100.00;98814.69;5011858;28;20219;-78
2022/11/08 05:54:06;;;;;;;10.87;6.43;;;;;;;8.77;100.00;98808.19;5003265;28;20195;-78
2022/11/08 05:56:35;;;;;;;14.93;7.53;;;;;;;8.67;100.00;98804.41;5010164;28;20202;-78
2022/11/08 05:59:05;;;;;;;12.57;6.87;;;;;;;8.70;100.00;98803.41;5014120;28;20195;-78
2022/11/08 06:01:35;;;;;;;12.27;6.60;;;;;;;8.59;100.00;98797.00;5012487;28;20253;-78
2022/11/08 06:04:03;;;;;;;10.10;6.87;;;;;;;8.60;100.00;98798.69;5015179;28;20202;-78
2022/11/08 06:06:32;;;;;;;11.07;7.07;;;;;;;8.63;100.00;98802.06;5008693;28;20194;-79
2022/11/08 06:09:02;;;;;;;10.63;6.53;;;;;;;8.69;100.00;98786.72;5027679;28;20643;-79
2022/11/08 06:11:31;;;;;;;13.83;6.97;;;;;;;8.61;100.00;98788.97;5077806;28;20250;-79
2022/11/08 06:14:01;;;;;;;13.10;7.40;;;;;;;8.74;100.00;98792.53;5071122;28;20213;-79
2022/11/08 06:16:30;;;;;;;12.80;6.80;;;;;;;8.68;100.00;98786.78;5075257;28;20246;-79
2022/11/08 06:19:00;;;;;;;10.80;6.17;;;;;;;8.53;100.00;98776.25;5074301;28;20189;-79
2022/11/08 06:21:30;;;;;;;11.00;6.63;;;;;;;8.60;100.00;98797.84;5076212;28;20265;-78
2022/11/08 06:23:58;;;;;;;12.13;7.20;;;;;;;8.58;100.00;98783.84;5058552;28;20188;-79
2022/11/08 06:26:28;;;;;;;9.67;6.80;;;;;;;8.55;100.00;98778.78;5080172;28;20220;-78
2022/11/08 06:28:56;;;;;;;12.23;6.93;;;;;;;8.50;100.00;98783.50;5073189;28;20200;-79
2022/11/08 06:31:25;;;;;;;9.17;6.50;;;;;;;8.44;100.00;98790.00;5078032;28;20250;-79
2022/11/08 06:33:53;;;;;;;10.63;6.47;;;;;;;8.43;100.00;98790.94;5075653;28;20193;-80
2022/11/08 06:36:22;;;;;;;12.03;6.30;;;;;;;8.50;100.00;98796.72;5076141;28;20238;-80
2022/11/08 06:38:54;;;;;;;10.07;5.80;;;;;;;8.13;100.00;98793.63;5033240;28;20255;-79
2022/11/08 06:41:26;;;;;;;9.70;6.73;;;;;;;7.87;100.00;98810.13;5028341;28;20189;-80
2022/11/08 06:43:55;;;;;;;9.20;5.80;;;;;;;7.70;100.00;98809.31;5029290;28;20193;-79
2022/11/08 06:46:24;;;;;;;8.77;5.53;;;;;;;7.82;100.00;98815.69;5027376;28;20218;-81
2022/11/08 06:48:53;;;;;;;8.60;5.37;;;;;;;7.80;100.00;98814.06;4954719;28;20200;-81
2022/11/08 06:51:22;;;;;;;7.03;5.33;;;;;;;7.81;100.00;98818.38;4953736;28;20204;-81
2022/11/08 06:53:51;;;;;;;9.00;5.30;;;;;;;7.88;100.00;98823.22;4952213;28;20204;-81
2022/11/08 06:56:19;;;;;;;10.50;5.77;;;;;;;7.85;100.00;98827.84;4950195;28;20285;-79
2022/11/08 06:58:51;;;;;;;9.67;5.20;;;;;;;7.97;100.00;98820.03;4947271;28;20216;-79
2022/11/08 07:01:21;;;;;;;8.97;5.57;;;;;;;8.10;100.00;98808.75;4946526;28;20200;-79
2022/11/08 07:03:49;;;;;;;8.67;6.00;;;;;;;8.14;100.00;98811.16;4990734;28;20273;-79
2022/11/08 07:06:21;;;;;;;8.77;5.73;;;;;;;8.25;100.00;98813.13;5024180;28;20208;-77
2022/11/08 07:08:58;;;;;;;10.50;6.60;;;;;;;8.35;100.00;98816.09;5078939;28;20196;-81
2022/11/08 07:11:26;;;;;;;8.03;5.53;;;;;;;8.20;100.00;98820.47;5075276;28;20242;-81
2022/11/08 07:13:55;;;;;;;9.00;6.23;;;;;;;8.27;100.00;98801.53;5079237;28;20237;-80
2022/11/08 07:16:24;;;;;;;7.87;6.30;;;;;;;8.43;100.00;98812.06;5073553;28;20238;-78
2022/11/08 07:18:54;;;;;;;11.50;7.00;;;;;;;8.36;100.00;98801.97;5073218;28;20192;-80
2022/11/08 07:21:23;;;;;;;11.13;7.50;;;;;;;8.35;100.00;98801.13;5079146;28;20188;-81
2022/11/08 07:23:51;;;;;;;12.63;6.83;;;;;;;8.47;100.00;98812.72;5074597;28;20201;-79
2022/11/08 07:26:24;;;;;;;9.57;6.97;;;;;;;8.42;100.00;98802.44;5075861;28;20273;-80
2022/11/08 07:28:52;;;;;;;10.13;6.83;;;;;;;8.37;100.00;98809.78;5069917;28;20227;-78
2022/11/08 07:31:22;;;;;;;8.47;5.80;;;;;;;8.16;100.00;98814.53;5071725;28;20188;-80
2022/11/08 07:33:52;;;;;;;9.60;5.87;;;;;;;8.21;100.00;98822.19;5072807;28;20635;-78
2022/11/08 07:36:20;;;;;;;6.03;4.60;;;;;;;8.33;100.00;98824.94;5042246;28;20197;-78
2022/11/08 07:38:49;;;;;;;6.43;4.10;;;;;;;8.56;100.00;98826.19;5073898;28;20196;-78
2022/11/08 07:41:18;;;;;;;7.03;4.13;;;;;;;8.78;100.00;98830.16;5077595;28;20223;-78
2022/11/08 07:43:48;;;;;;;7.40;4.13;;;;;;;8.64;100.00;98819.59;5075721;28;20204;-78
2022/11/08 07:46:16;;;;;;;6.57;4.10;;;;;;;8.82;100.00;98810.53;5073758;28;20240;-78
2022/11/08 07:48:45;;;;;;;11.20;4.27;;;;;;;8.74;100.00;98826.00;5078560;28;20192;-79
2022/11/08 07:51:15;;;;;;;6.37;3.97;;;;;;;8.75;100.00;98823.28;5077042;28;20188;-80
2022/11/08 07:53:44;;;;;;;10.03;4.57;;;;;;;8.76;100.00;98826.75;5075000;28;20639;-80
2022/11/08 07:56:13;;;;;;;10.97;4.27;;;;;;;8.67;100.00;98822.03;5073889;28;20189;-81
2022/11/08 07:58:41;;;;;;;7.63;4.17;;;;;;;8.88;100.00;98832.16;5073591;28;20197;-79
2022/11/08 08:01:10;;;;;;;10.13;4.40;;;;;;;8.95;100.00;98826.47;5070492;28;20204;-81
2022/11/08 08:03:41;;;;;;;6.87;3.80;;;;;;;8.89;100.00;98831.19;5072155;28;20205;-79
2022/11/08 08:06:09;;;;;;;8.13;4.10;;;;;;;8.96;100.00;98844.00;5072049;28;20277;-81
2022/11/08 08:08:39;;;;;;;7.80;4.00;;;;;;;8.96;100.00;98847.50;5074721;28;20192;-78
2022/11/08 08:11:08;;;;;;;8.53;4.30;;;;;;;9.03;100.00;98847.97;5068840;28;20192;-79
2022/11/08 08:13:37;;;;;;;10.13;4.40;;;;;;;9.13;100.00;98838.53;5065479;28;20199;-78
2022/11/08 08:16:05;;;;;;;7.03;4.37;;;;;;;9.26;100.00;98841.22;5064951;28;20246;-79
2022/11/08 08:18:34;;;;;;;24.37;11.10;;;;;;;9.21;100.00;98838.03;5005199;28;20206;-79
2022/11/08 08:21:03;;;;;;;16.43;6.87;;;;;;;9.36;100.00;98850.25;5003419;28;20206;-79
2022/11/08 08:23:31;;;;;;;12.57;5.50;;;;;;;9.45;100.00;98839.09;5009818;28;20253;-79
2022/11/08 08:26:02;;;;;;;7.73;3.67;;;;;;;9.57;100.00;98840.13;5011534;28;20210;-79
2022/11/08 08:28:31;;;;;;;6.10;3.90;;;;;;;9.57;100.00;98842.75;5011378;28;20194;-79
2022/11/08 08:31:02;;;;;;;7.17;3.43;;;;;;;9.59;100.00;98825.84;5010655;28;20389;-79
2022/11/08 08:33:30;;;;;;;6.87;3.90;;;;;;;9.62;100.00;98823.00;5007547;28;20198;-79
2022/11/08 08:36:01;;;;;;;7.77;4.23;;;;;;;9.69;100.00;98815.50;5010606;28;20205;-78
2022/11/08 08:38:30;;;;;;;7.17;3.90;;;;;;;9.74;100.00;98810.75;5011156;28;20194;-79
2022/11/08 08:40:58;;;;;;;6.90;3.50;;;;;;;9.96;100.00;98810.19;5011966;28;20201;-79
2022/11/08 08:43:31;;;;;;;9.47;3.77;;;;;;;10.08;100.00;98800.56;5048578;28;20196;-78
2022/11/08 08:46:00;;;;;;;6.70;3.70;;;;;;;10.19;100.00;98798.88;5074838;28;20220;-78
2022/11/08 08:48:29;;;;;;;5.27;3.50;;;;;;;10.21;100.00;98796.97;5071581;28;20254;-81
2022/11/08 08:50:58;;;;;;;5.63;3.40;;;;;;;10.31;100.00;98794.56;5075107;28;20191;-79
2022/11/08 08:53:27;;;;;;;7.00;3.33;;;;;;;10.30;100.00;98784.94;5072853;28;20227;-79
2022/11/08 08:55:57;;;;;;;5.77;3.30;;;;;;;10.34;100.00;98786.44;5077150;28;20662;-79
2022/11/08 08:58:25;;;;;;;7.27;3.60;;;;;;;10.51;100.00;98779.97;5074216;28;20262;-79
2022/11/08 09:01:00;;;;;;;9.90;3.73;;;;;;;10.65;100.00;98786.97;5069179;28;20220;-79
2022/11/08 09:03:49;;;;;;;7.40;3.63;;;;;;;10.74;100.00;98788.97;5072772;28;20206;-78
2022/11/08 09:06:17;;;;;;;5.97;3.37;;;;;;;10.76;100.00;98790.53;5073265;28;20216;-78
2022/11/08 09:08:46;;;;;;;7.90;4.13;;;;;;;10.88;100.00;98784.34;5054045;28;20289;-78
2022/11/08 09:11:16;;;;;;;4.93;4.20;;;;;;;11.00;100.00;98776.47;5072788;28;20189;-78
2022/11/08 09:13:45;;;;;;;9.03;5.83;;;;;;;11.10;100.00;98780.19;5071365;28;20193;-78
2022/11/08 09:16:17;;;;;;;4.67;3.63;;;;;;;11.20;100.00;98767.13;5074538;28;20188;-79
2022/11/08 09:18:46;;;;;;;7.13;3.67;;;;;;;11.31;100.00;98770.69;5075022;28;20224;-79
2022/11/08 09:21:14;;;;;;;5.53;3.17;;;;;;;11.40;100.00;98764.69;5072019;28;20271;-79
2022/11/08 09:23:44;;;;;;;9.23;4.20;;;;;;;11.46;100.00;98761.56;5032530;28;20185;-79
2022/11/08 09:26:13;;;;;;;7.87;3.87;;;;;;;11.52;100.00;98762.94;5073959;28;20223;-79
2022/11/08 09:28:42;;;;;;;7.47;3.30;;;;;;;11.62;100.00;98752.50;5030266;28;21174;-79
2022/11/08 09:31:12;;;;;;;6.00;3.73;;;;;;;11.86;100.00;98749.81;5031002;28;20201;-78
2022/11/08 09:33:42;;;;;;;6.63;3.70;;;;;;;11.96;100.00;98753.47;5034180;28;20193;-79
2022/11/08 09:36:14;;;;;;;8.23;3.73;;;;;;;12.12;100.00;98738.06;5025771;28;20189;-79
2022/11/08 09:38:43;;;;;;;5.63;3.53;;;;;;;12.22;100.00;98738.19;4984185;28;20194;-79
2022/11/08 09:41:38;;;;;;;5.80;3.37;;;;;;;12.17;100.00;98735.06;5030010;28;20193;-81
2022/11/08 09:44:21;;;;;;;5.93;3.30;;;;;;;12.11;100.00;98724.91;5031372;28;20193;-78
2022/11/08 09:46:54;;;;;;;4.87;3.20;;;;;;;12.36;100.00;98730.00;5032957;28;20217;-78
2022/11/08 09:49:29;;;;;;;6.23;3.20;;;;;;;12.39;100.00;98726.25;5031762;28;20190;-79
2022/11/08 09:52:00;;;;;;;3.63;2.83;;;;;;;12.46;100.00;98719.50;5031210;28;20271;-78
2022/11/08 09:54:35;;;;;;;5.07;2.90;;;;;;;12.70;100.00;98727.34;5072448;28;20253;-79
2022/11/08 09:57:06;;;;;;;5.60;3.07;;;;;;;12.70;100.00;98722.88;5079342;28;20200;-78
2022/11/08 09:59:41;;;;;;;6.77;2.93;;;;;;;12.71;100.00;98721.91;5074646;28;20674;-79
2022/11/08 10:02:17;;;;;;;4.13;2.80;;;;;;;13.03;100.00;98721.16;5073908;28;20200;-79
2022/11/08 10:04:53;;;;;;;4.47;2.77;;;;;;;13.10;100.00;98711.69;5076582;28;20646;-79
2022/11/08 10:07:32;;;;;;;6.50;3.00;;;;;;;13.15;100.00;98712.16;5079390;28;20220;-79
2022/11/08 10:10:27;;;;;;;5.77;2.73;;;;;;;13.03;100.00;98716.66;5041724;28;20192;-79
2022/11/08 10:13:04;;;;;;;5.70;2.60;;;;;;;12.52;100.00;98703.06;5069328;28;20223;-79
2022/11/08 10:15:42;;;;;;;6.23;2.60;;;;;;;12.96;100.00;98691.53;5075245;28;20199;-78
2022/11/08 10:18:40;;;;;;;5.10;2.73;;;;;;;13.22;100.00;98697.44;5041263;28;20195;-79
2022/11/08 10:21:19;;;;;;;8.10;2.47;;;;;;;13.43;100.00;98685.00;5067941;28;20196;-81
2022/11/08 10:24:00;;;;;;;3.63;2.37;;;;;;;13.48;100.00;98678.44;5075725;28;20196;-79
2022/11/08 10:26:35;;;;;;;5.47;2.57;;;;;;;13.77;100.00;98682.16;5076523;28;20188;-81
2022/11/08 10:29:09;;;;;;;4.23;2.20;;;;;;;13.59;100.00;98687.22;5077636;28;20241;-81
2022/11/08 10:31:40;;;;;;;6.60;2.20;;;;;;;13.58;100.00;98674.03;5078259;28;20246;-81
2022/11/08 10:34:15;;;;;;;3.43;2.10;;;;;;;13.74;100.00;98669.13;5078753;28;20196;-81
2022/11/08 10:36:47;;;;;;;2.40;1.87;;;;;;;13.93;100.00;98660.41;5076477;28;20196;-81
2022/11/08 10:39:20;;;;;;;3.13;1.90;;;;;;;13.99;100.00;98657.19;5079689;28;20188;-81
2022/11/08 10:41:57;;;;;;;3.93;2.10;;;;;;;13.91;100.00;98667.69;5074733;28;20200;-81
2022/11/08 10:44:26;;;;;;;4.83;2.00;;;;;;;14.10;100.00;98659.81;5059768;28;20249;-81
2022/11/08 10:46:59;;;;;;;3.57;1.93;;;;;;;14.12;100.00;98660.50;5073618;28;20189;-81
2022/11/08 10:49:30;;;;;;;3.33;2.17;;;;;;;13.98;100.00;98650.19;5076245;28;20196;-81
2022/11/08 10:52:18;;;;;;;3.93;2.13;;;;;;;14.35;100.00;98660.31;5042958;28;20824;-80
2022/11/08 10:54:49;;;;;;;2.97;1.80;;;;;;;14.43;100.00;98668.50;5076854;28;20205;-81
2022/11/08 10:57:36;;;;;;;3.67;1.87;;;;;;;13.87;100.00;98669.75;5075069;28;20192;-81
2022/11/08 11:00:26;;;;;;;3.93;1.87;;;;;;;14.13;100.00;98661.34;5071363;28;20196;-81
2022/11/08 11:02:57;;;;;;;3.37;2.10;;;;;;;13.87;100.00;98672.41;5031577;28;20221;-81
2022/11/08 11:05:30;;;;;;;4.37;2.10;;;;;;;14.26;100.00;98662.81;5031989;28;20263;-81
2022/11/08 11:08:16;;;;;;;3.03;1.90;;;;;;;14.35;100.00;98652.34;5025812;28;20684;-81
2022/11/08 11:10:46;;;;;;;4.70;2.00;;;;;;;14.51;100.00;98658.88;5028689;28;20272;-81
2022/11/08 11:13:21;;;;;;;3.90;1.83;;;;;;;14.36;100.00;98662.84;5028907;28;20197;-81
2022/11/08 11:15:52;;;;;;;3.10;1.97;;;;;;;14.16;100.00;98651.25;5029340;28;20201;-81
2022/11/08 11:18:31;;;;;;;3.93;1.80;;;;;;;14.04;100.00;98668.31;5031458;28;20499;-81
2022/11/08 11:21:03;;;;;;;3.03;2.00;;;;;;;13.99;100.00;98663.41;5044459;28;20203;-80
2022/11/08 11:23:43;;;;;;;3.20;2.13;;;;;;;14.30;100.00;98658.91;5075252;28;20199;-81
2022/11/08 11:26:27;;;;;;;2.90;1.60;;;;;;;14.39;100.00;98645.78;5072968;28;20249;-81
2022/11/08 11:29:07;;;;;;;3.60;1.80;;;;;;;14.41;100.00;98643.81;5075592;28;20265;-81
2022/11/08 11:31:37;;;;;;;2.83;1.80;;;;;;;14.37;100.00;98645.88;5074854;28;20220;-81
2022/11/08 11:34:46;;;;;;;3.63;1.83;;;;;;;14.48;100.00;98647.66;5074880;28;20257;-81
2022/11/08 11:37:25;;;;;;;3.20;2.00;;;;;;;14.26;100.00;98632.66;5049929;28;20733;-81
2022/11/08 11:40:04;;;;;;;3.73;2.00;;;;;;;13.94;100.00;98624.81;5070497;28;20234;-81
2022/11/08 11:42:39;;;;;;;3.63;2.10;;;;;;;14.07;100.00;98621.94;5072811;28;20220;-80
2022/11/08 11:45:20;;;;;;;7.73;2.30;;;;;;;14.03;100.00;98632.84;5074055;28;20192;-80
2022/11/08 11:47:52;;;;;;;3.47;2.03;;;;;;;14.01;100.00;98625.97;5078014;27;20220;-81
2022/11/08 11:50:31;;;;;;;3.03;2.10;;;;;;;13.98;100.00;98618.25;5074027;28;20196;-80
2022/11/08 11:53:03;;;;;;;5.10;2.10;;;;;;;13.91;100.00;98627.75;5072163;28;20231;-81
2022/11/08 11:55:49;;;;;;;3.37;2.20;;;;;;;13.88;100.00;98626.19;5071030;28;20218;-81
2022/11/08 11:58:43;;;;;;;5.40;2.60;;;;;;;13.97;100.00;98625.38;5076005;28;20236;-81
2022/11/08 12:01:22;;;;;;;4.13;2.23;;;;;;;13.92;100.00;98618.78;5072274;28;20189;-80
2022/11/08 12:04:21;;;;;;;2.67;1.93;;;;;;;14.13;100.00;98618.75;5073587;28;20184;-81
2022/11/08 12:06:56;;;;;;;3.57;2.17;;;;;;;14.04;100.00;98610.56;5072397;28;20200;-80